sensor_id;sensor_type;location;lat;lon;timestamp;temperature;humidity
16128;DHT22;8168;49.036;7.690;2023-04-03T00:01:47;4.80;99.90
16128;DHT22;8168;49.036;7.690;2023-04-03T00:04:18;4.80;99.90
16128;DHT22;8168;49.036;7.690;2023-04-03T00:06:49;4.80;99.90
16128;DHT22;8168;49.036;7.690;2023-04-03T00:09:19;5.10;99.90
16128;DHT22;8168;49.036;7.690;2023-04-03T00:11:50;4.80;99.90
16128;DHT22;8168;49.036;7.690;2023-04-03T00:14:20;4.70;99.90
16128;DHT22;8168;49.036;7.690;2023-04-03T00:16:51;4.70;99.90
16128;DHT22;8168;49.036;7.690;2023-04-03T00:19:22;4.90;99.90
16128;DHT22;8168;49.036;7.690;2023-04-03T00:21:52;4.70;99.90
16128;DHT22;8168;49.036;7.690;2023-04-03T00:24:23;4.90;99.90
16128;DHT22;8168;49.036;7.690;2023-04-03T00:26:54;4.60;99.90
16128;DHT22;8168;49.036;7.690;2023-04-03T00:29:25;4.70;99.90
16128;DHT22;8168;49.036;7.690;2023-04-03T00:31:55;4.70;99.90
16128;DHT22;8168;49.036;7.690;2023-04-03T00:34:26;4.70;99.90
16128;DHT22;8168;49.036;7.690;2023-04-03T00:36:57;4.70;99.90
16128;DHT22;8168;49.036;7.690;2023-04-03T00:39:27;4.70;99.90
16128;DHT22;8168;49.036;7.690;2023-04-03T00:41:58;4.70;99.90
16128;DHT22;8168;49.036;7.690;2023-04-03T00:47:08;5.10;99.90
16128;DHT22;8168;49.036;7.690;2023-04-03T00:49:39;4.60;99.90
16128;DHT22;8168;49.036;7.690;2023-04-03T00:52:14;5.00;99.90
16128;DHT22;8168;49.036;7.690;2023-04-03T00:54:48;4.90;99.90
16128;DHT22;8168;49.036;7.690;2023-04-03T00:57:19;5.00;99.90
16128;DHT22;8168;49.036;7.690;2023-04-03T00:59:54;4.70;99.90
16128;DHT22;8168;49.036;7.690;2023-04-03T01:02:26;4.80;99.90
16128;DHT22;8168;49.036;7.690;2023-04-03T01:04:56;4.60;99.90
16128;DHT22;8168;49.036;7.690;2023-04-03T01:07:29;4.70;99.90
16128;DHT22;8168;49.036;7.690;2023-04-03T01:10:08;4.70;99.90
16128;DHT22;8168;49.036;7.690;2023-04-03T01:12:41;4.60;99.90
16128;DHT22;8168;49.036;7.690;2023-04-03T01:15:17;4.80;99.90
16128;DHT22;8168;49.036;7.690;2023-04-03T01:17:52;4.50;99.90
16128;DHT22;8168;49.036;7.690;2023-04-03T01:23:17;4.50;99.90
16128;DHT22;8168;49.036;7.690;2023-04-03T01:25:55;4.50;99.90
16128;DHT22;8168;49.036;7.690;2023-04-03T01:28:28;4.50;99.90
16128;DHT22;8168;49.036;7.690;2023-04-03T01:31:19;4.80;99.90
16128;DHT22;8168;49.036;7.690;2023-04-03T01:33:50;4.50;99.90
16128;DHT22;8168;49.036;7.690;2023-04-03T01:36:29;4.60;99.90
16128;DHT22;8168;49.036;7.690;2023-04-03T01:39:00;4.50;99.90
16128;DHT22;8168;49.036;7.690;2023-04-03T01:41:31;4.50;99.90
16128;DHT22;8168;49.036;7.690;2023-04-03T01:44:01;4.80;99.90
16128;DHT22;8168;49.036;7.690;2023-04-03T01:46:32;4.80;99.90
16128;DHT22;8168;49.036;7.690;2023-04-03T01:49:03;4.50;99.90
16128;DHT22;8168;49.036;7.690;2023-04-03T01:51:34;4.80;99.90
16128;DHT22;8168;49.036;7.690;2023-04-03T01:54:05;4.80;99.90
16128;DHT22;8168;49.036;7.690;2023-04-03T01:56:36;4.60;99.90
16128;DHT22;8168;49.036;7.690;2023-04-03T01:59:06;4.80;99.90
16128;DHT22;8168;49.036;7.690;2023-04-03T02:01:37;4.50;99.90
16128;DHT22;8168;49.036;7.690;2023-04-03T02:04:07;4.80;99.90
16128;DHT22;8168;49.036;7.690;2023-04-03T02:06:38;4.40;99.90
16128;DHT22;8168;49.036;7.690;2023-04-03T02:09:09;4.60;99.90
16128;DHT22;8168;49.036;7.690;2023-04-03T02:11:39;4.70;99.90
16128;DHT22;8168;49.036;7.690;2023-04-03T02:14:10;4.60;99.90
16128;DHT22;8168;49.036;7.690;2023-04-03T02:16:41;4.40;99.90
16128;DHT22;8168;49.036;7.690;2023-04-03T02:19:11;4.60;99.90
16128;DHT22;8168;49.036;7.690;2023-04-03T02:21:42;4.40;99.90
16128;DHT22;8168;49.036;7.690;2023-04-03T02:24:12;4.40;99.90
16128;DHT22;8168;49.036;7.690;2023-04-03T02:26:43;4.40;99.90
16128;DHT22;8168;49.036;7.690;2023-04-03T02:29:14;4.40;99.90
16128;DHT22;8168;49.036;7.690;2023-04-03T02:31:44;4.40;99.90
16128;DHT22;8168;49.036;7.690;2023-04-03T02:34:15;4.30;99.90
16128;DHT22;8168;49.036;7.690;2023-04-03T02:36:46;4.30;99.90
16128;DHT22;8168;49.036;7.690;2023-04-03T02:39:16;4.60;99.90
16128;DHT22;8168;49.036;7.690;2023-04-03T02:41:47;4.50;99.90
16128;DHT22;8168;49.036;7.690;2023-04-03T02:44:21;4.30;99.90
16128;DHT22;8168;49.036;7.690;2023-04-03T02:46:51;4.20;99.90
16128;DHT22;8168;49.036;7.690;2023-04-03T02:49:22;4.10;99.90
16128;DHT22;8168;49.036;7.690;2023-04-03T02:51:52;4.10;99.90
16128;DHT22;8168;49.036;7.690;2023-04-03T02:54:23;4.10;99.90
16128;DHT22;8168;49.036;7.690;2023-04-03T02:56:58;4.10;99.90
16128;DHT22;8168;49.036;7.690;2023-04-03T02:59:28;4.20;99.90
16128;DHT22;8168;49.036;7.690;2023-04-03T03:01:59;4.30;99.90
16128;DHT22;8168;49.036;7.690;2023-04-03T03:04:29;4.00;99.90
16128;DHT22;8168;49.036;7.690;2023-04-03T03:07:00;3.90;99.90
16128;DHT22;8168;49.036;7.690;2023-04-03T03:09:31;3.90;99.90
16128;DHT22;8168;49.036;7.690;2023-04-03T03:12:02;3.90;99.90
16128;DHT22;8168;49.036;7.690;2023-04-03T03:14:32;3.80;99.90
16128;DHT22;8168;49.036;7.690;2023-04-03T03:17:03;3.90;99.90
16128;DHT22;8168;49.036;7.690;2023-04-03T03:19:34;3.80;99.90
16128;DHT22;8168;49.036;7.690;2023-04-03T03:22:04;3.70;99.90
16128;DHT22;8168;49.036;7.690;2023-04-03T03:24:35;3.80;99.90
16128;DHT22;8168;49.036;7.690;2023-04-03T03:27:05;3.80;99.90
16128;DHT22;8168;49.036;7.690;2023-04-03T03:29:36;3.70;99.90
16128;DHT22;8168;49.036;7.690;2023-04-03T03:32:07;4.30;99.90
16128;DHT22;8168;49.036;7.690;2023-04-03T03:34:37;3.60;99.90
16128;DHT22;8168;49.036;7.690;2023-04-03T03:37:08;3.60;99.90
16128;DHT22;8168;49.036;7.690;2023-04-03T03:39:39;3.60;99.90
16128;DHT22;8168;49.036;7.690;2023-04-03T03:42:09;3.70;99.90
16128;DHT22;8168;49.036;7.690;2023-04-03T03:44:41;3.50;99.90
16128;DHT22;8168;49.036;7.690;2023-04-03T03:47:12;3.50;99.90
16128;DHT22;8168;49.036;7.690;2023-04-03T03:49:42;3.50;99.90
16128;DHT22;8168;49.036;7.690;2023-04-03T03:52:13;3.60;99.90
16128;DHT22;8168;49.036;7.690;2023-04-03T03:54:44;3.60;99.90
16128;DHT22;8168;49.036;7.690;2023-04-03T03:57:15;3.60;99.90
16128;DHT22;8168;49.036;7.690;2023-04-03T03:59:46;3.60;99.90
16128;DHT22;8168;49.036;7.690;2023-04-03T04:02:18;4.40;99.90
16128;DHT22;8168;49.036;7.690;2023-04-03T04:04:52;3.50;99.90
16128;DHT22;8168;49.036;7.690;2023-04-03T04:07:23;4.90;99.90
16128;DHT22;8168;49.036;7.690;2023-04-03T04:09:54;3.50;99.90
16128;DHT22;8168;49.036;7.690;2023-04-03T04:12:24;3.40;99.90
16128;DHT22;8168;49.036;7.690;2023-04-03T04:14:55;3.40;99.90
16128;DHT22;8168;49.036;7.690;2023-04-03T04:17:26;3.40;99.90
16128;DHT22;8168;49.036;7.690;2023-04-03T04:19:56;3.40;99.90
16128;DHT22;8168;49.036;7.690;2023-04-03T04:22:27;3.60;99.90
16128;DHT22;8168;49.036;7.690;2023-04-03T04:24:57;3.30;99.90
16128;DHT22;8168;49.036;7.690;2023-04-03T04:27:28;3.20;99.90
16128;DHT22;8168;49.036;7.690;2023-04-03T04:29:58;3.20;99.90
16128;DHT22;8168;49.036;7.690;2023-04-03T04:32:29;3.20;99.90
16128;DHT22;8168;49.036;7.690;2023-04-03T04:35:00;3.20;99.90
16128;DHT22;8168;49.036;7.690;2023-04-03T04:37:31;3.20;99.90
16128;DHT22;8168;49.036;7.690;2023-04-03T04:40:02;3.20;99.90
16128;DHT22;8168;49.036;7.690;2023-04-03T04:42:33;3.20;99.90
16128;DHT22;8168;49.036;7.690;2023-04-03T04:45:04;3.70;99.90
16128;DHT22;8168;49.036;7.690;2023-04-03T04:47:34;3.20;99.90
16128;DHT22;8168;49.036;7.690;2023-04-03T04:50:06;3.20;99.90
16128;DHT22;8168;49.036;7.690;2023-04-03T04:52:38;3.30;99.90
16128;DHT22;8168;49.036;7.690;2023-04-03T04:55:08;3.30;99.90
16128;DHT22;8168;49.036;7.690;2023-04-03T04:57:39;3.30;99.90
16128;DHT22;8168;49.036;7.690;2023-04-03T05:00:10;3.60;99.90
16128;DHT22;8168;49.036;7.690;2023-04-03T05:02:41;3.30;99.90
16128;DHT22;8168;49.036;7.690;2023-04-03T05:05:12;3.40;99.90
16128;DHT22;8168;49.036;7.690;2023-04-03T05:07:42;3.40;99.90
16128;DHT22;8168;49.036;7.690;2023-04-03T05:10:13;3.40;99.90
16128;DHT22;8168;49.036;7.690;2023-04-03T05:12:43;3.50;99.90
16128;DHT22;8168;49.036;7.690;2023-04-03T05:15:14;3.40;99.90
16128;DHT22;8168;49.036;7.690;2023-04-03T05:17:45;3.40;99.90
16128;DHT22;8168;49.036;7.690;2023-04-03T05:20:16;3.30;99.90
16128;DHT22;8168;49.036;7.690;2023-04-03T05:22:47;3.40;99.90
16128;DHT22;8168;49.036;7.690;2023-04-03T05:25:17;3.40;99.90
16128;DHT22;8168;49.036;7.690;2023-04-03T05:27:48;3.40;99.90
16128;DHT22;8168;49.036;7.690;2023-04-03T05:30:19;3.50;99.90
16128;DHT22;8168;49.036;7.690;2023-04-03T05:32:49;3.50;99.90
16128;DHT22;8168;49.036;7.690;2023-04-03T05:35:20;3.60;99.90
16128;DHT22;8168;49.036;7.690;2023-04-03T05:37:51;3.70;99.90
16128;DHT22;8168;49.036;7.690;2023-04-03T05:40:21;3.60;99.90
16128;DHT22;8168;49.036;7.690;2023-04-03T05:42:52;4.00;99.90
16128;DHT22;8168;49.036;7.690;2023-04-03T05:45:23;3.60;99.90
16128;DHT22;8168;49.036;7.690;2023-04-03T05:47:54;3.60;99.90
16128;DHT22;8168;49.036;7.690;2023-04-03T05:50:25;3.60;99.90
16128;DHT22;8168;49.036;7.690;2023-04-03T05:52:57;3.60;99.90
16128;DHT22;8168;49.036;7.690;2023-04-03T05:55:29;3.60;99.90
16128;DHT22;8168;49.036;7.690;2023-04-03T05:57:59;3.60;99.90
16128;DHT22;8168;49.036;7.690;2023-04-03T06:00:30;3.80;99.90
16128;DHT22;8168;49.036;7.690;2023-04-03T06:03:00;3.60;99.90
16128;DHT22;8168;49.036;7.690;2023-04-03T06:05:31;3.60;99.90
16128;DHT22;8168;49.036;7.690;2023-04-03T06:08:02;3.60;99.90
16128;DHT22;8168;49.036;7.690;2023-04-03T06:10:33;3.70;99.90
16128;DHT22;8168;49.036;7.690;2023-04-03T06:13:04;3.70;99.90
16128;DHT22;8168;49.036;7.690;2023-04-03T06:15:34;3.70;99.90
16128;DHT22;8168;49.036;7.690;2023-04-03T06:18:05;3.80;99.90
16128;DHT22;8168;49.036;7.690;2023-04-03T06:20:37;3.80;99.90
16128;DHT22;8168;49.036;7.690;2023-04-03T06:23:07;3.90;99.90
16128;DHT22;8168;49.036;7.690;2023-04-03T06:25:38;3.90;99.90
16128;DHT22;8168;49.036;7.690;2023-04-03T06:28:09;4.20;99.90
16128;DHT22;8168;49.036;7.690;2023-04-03T06:30:40;4.00;99.90
16128;DHT22;8168;49.036;7.690;2023-04-03T06:33:11;4.20;99.90
16128;DHT22;8168;49.036;7.690;2023-04-03T06:35:41;4.30;99.90
16128;DHT22;8168;49.036;7.690;2023-04-03T06:38:12;4.00;99.90
16128;DHT22;8168;49.036;7.690;2023-04-03T06:40:43;4.50;99.90
16128;DHT22;8168;49.036;7.690;2023-04-03T06:43:14;4.20;99.90
16128;DHT22;8168;49.036;7.690;2023-04-03T06:45:44;4.90;99.90
16128;DHT22;8168;49.036;7.690;2023-04-03T06:48:15;4.30;99.90
16128;DHT22;8168;49.036;7.690;2023-04-03T06:50:46;4.60;99.90
16128;DHT22;8168;49.036;7.690;2023-04-03T06:53:16;4.70;99.90
16128;DHT22;8168;49.036;7.690;2023-04-03T06:55:47;4.50;99.90
16128;DHT22;8168;49.036;7.690;2023-04-03T06:58:18;4.50;99.90
16128;DHT22;8168;49.036;7.690;2023-04-03T07:00:48;4.50;99.90
16128;DHT22;8168;49.036;7.690;2023-04-03T07:03:19;4.70;99.90
16128;DHT22;8168;49.036;7.690;2023-04-03T07:05:49;4.80;99.90
16128;DHT22;8168;49.036;7.690;2023-04-03T07:08:20;4.50;99.90
16128;DHT22;8168;49.036;7.690;2023-04-03T07:10:51;4.60;99.90
16128;DHT22;8168;49.036;7.690;2023-04-03T07:13:22;4.80;99.90
16128;DHT22;8168;49.036;7.690;2023-04-03T07:15:52;4.80;99.90
16128;DHT22;8168;49.036;7.690;2023-04-03T07:18:24;5.00;99.90
16128;DHT22;8168;49.036;7.690;2023-04-03T07:20:55;4.80;99.90
16128;DHT22;8168;49.036;7.690;2023-04-03T07:23:25;4.80;99.90
16128;DHT22;8168;49.036;7.690;2023-04-03T07:25:56;4.80;99.90
16128;DHT22;8168;49.036;7.690;2023-04-03T07:28:27;4.90;99.90
16128;DHT22;8168;49.036;7.690;2023-04-03T07:31:02;4.90;99.90
16128;DHT22;8168;49.036;7.690;2023-04-03T07:33:34;5.00;99.90
16128;DHT22;8168;49.036;7.690;2023-04-03T07:36:06;5.10;99.90
16128;DHT22;8168;49.036;7.690;2023-04-03T07:38:37;5.20;99.90
16128;DHT22;8168;49.036;7.690;2023-04-03T07:41:14;5.20;99.90
16128;DHT22;8168;49.036;7.690;2023-04-03T07:43:45;5.30;99.90
16128;DHT22;8168;49.036;7.690;2023-04-03T07:46:18;5.40;99.90
16128;DHT22;8168;49.036;7.690;2023-04-03T07:48:49;5.40;99.90
16128;DHT22;8168;49.036;7.690;2023-04-03T07:51:19;5.50;99.90
16128;DHT22;8168;49.036;7.690;2023-04-03T07:53:50;5.50;99.90
16128;DHT22;8168;49.036;7.690;2023-04-03T07:56:21;5.60;99.90
16128;DHT22;8168;49.036;7.690;2023-04-03T07:58:53;5.70;99.90
16128;DHT22;8168;49.036;7.690;2023-04-03T08:01:24;5.70;99.90
16128;DHT22;8168;49.036;7.690;2023-04-03T08:03:54;5.80;99.90
16128;DHT22;8168;49.036;7.690;2023-04-03T08:06:25;5.90;99.90
16128;DHT22;8168;49.036;7.690;2023-04-03T08:08:56;5.90;99.90
16128;DHT22;8168;49.036;7.690;2023-04-03T08:11:26;6.00;99.90
16128;DHT22;8168;49.036;7.690;2023-04-03T08:13:57;6.10;99.90
16128;DHT22;8168;49.036;7.690;2023-04-03T08:16:28;6.20;99.90
16128;DHT22;8168;49.036;7.690;2023-04-03T08:18:59;6.20;99.90
16128;DHT22;8168;49.036;7.690;2023-04-03T08:21:29;6.40;99.90
16128;DHT22;8168;49.036;7.690;2023-04-03T08:24:00;6.40;99.90
16128;DHT22;8168;49.036;7.690;2023-04-03T08:26:31;6.40;99.90
16128;DHT22;8168;49.036;7.690;2023-04-03T08:29:02;6.50;99.90
16128;DHT22;8168;49.036;7.690;2023-04-03T08:31:33;6.50;99.90
16128;DHT22;8168;49.036;7.690;2023-04-03T08:34:03;6.60;99.90
16128;DHT22;8168;49.036;7.690;2023-04-03T08:36:34;6.70;99.90
16128;DHT22;8168;49.036;7.690;2023-04-03T08:39:04;6.70;99.90
16128;DHT22;8168;49.036;7.690;2023-04-03T08:41:43;6.80;99.90
16128;DHT22;8168;49.036;7.690;2023-04-03T08:49:45;7.50;99.90
16128;DHT22;8168;49.036;7.690;2023-04-03T08:55:02;7.00;99.90
16128;DHT22;8168;49.036;7.690;2023-04-03T08:57:40;7.00;99.90
16128;DHT22;8168;49.036;7.690;2023-04-03T09:00:23;7.00;99.90
16128;DHT22;8168;49.036;7.690;2023-04-03T09:02:56;7.00;99.90
16128;DHT22;8168;49.036;7.690;2023-04-03T09:05:32;7.10;99.90
16128;DHT22;8168;49.036;7.690;2023-04-03T09:08:21;7.30;99.90
16128;DHT22;8168;49.036;7.690;2023-04-03T09:13:56;7.20;99.90
16128;DHT22;8168;49.036;7.690;2023-04-03T09:19:41;7.30;99.90
16128;DHT22;8168;49.036;7.690;2023-04-03T09:22:23;7.70;99.90
16128;DHT22;8168;49.036;7.690;2023-04-03T09:25:29;7.30;99.90
16128;DHT22;8168;49.036;7.690;2023-04-03T09:28:04;7.30;99.90
16128;DHT22;8168;49.036;7.690;2023-04-03T09:30:40;7.40;99.90
16128;DHT22;8168;49.036;7.690;2023-04-03T09:33:12;7.60;99.90
16128;DHT22;8168;49.036;7.690;2023-04-03T09:35:50;7.20;99.90
16128;DHT22;8168;49.036;7.690;2023-04-03T09:38:22;7.20;99.90
16128;DHT22;8168;49.036;7.690;2023-04-03T09:41:25;7.30;99.90
16128;DHT22;8168;49.036;7.690;2023-04-03T09:43:56;7.30;99.90
16128;DHT22;8168;49.036;7.690;2023-04-03T09:46:33;7.30;99.90
16128;DHT22;8168;49.036;7.690;2023-04-03T09:49:05;7.20;99.90
16128;DHT22;8168;49.036;7.690;2023-04-03T09:51:37;7.40;99.90
16128;DHT22;8168;49.036;7.690;2023-04-03T09:54:32;7.20;99.90
16128;DHT22;8168;49.036;7.690;2023-04-03T09:57:10;7.20;99.90
16128;DHT22;8168;49.036;7.690;2023-04-03T09:59:56;7.10;99.90
16128;DHT22;8168;49.036;7.690;2023-04-03T10:02:41;7.50;99.90
16128;DHT22;8168;49.036;7.690;2023-04-03T10:10:46;7.10;99.90
16128;DHT22;8168;49.036;7.690;2023-04-03T10:13:20;7.10;99.90
16128;DHT22;8168;49.036;7.690;2023-04-03T10:16:11;7.10;99.90
16128;DHT22;8168;49.036;7.690;2023-04-03T10:19:44;7.20;99.90
16128;DHT22;8168;49.036;7.690;2023-04-03T10:21:59;7.20;99.90
16128;DHT22;8168;49.036;7.690;2023-04-03T10:25:45;7.20;99.90
16128;DHT22;8168;49.036;7.690;2023-04-03T10:27:53;7.30;99.90
16128;DHT22;8168;49.036;7.690;2023-04-03T10:30:31;7.20;99.90
16128;DHT22;8168;49.036;7.690;2023-04-03T10:45:19;7.60;99.90
16128;DHT22;8168;49.036;7.690;2023-04-03T10:48:02;7.90;99.90
16128;DHT22;8168;49.036;7.690;2023-04-03T10:51:01;7.60;99.90
16128;DHT22;8168;49.036;7.690;2023-04-03T10:59:37;7.60;99.90
16128;DHT22;8168;49.036;7.690;2023-04-03T11:05:04;7.60;99.90
16128;DHT22;8168;49.036;7.690;2023-04-03T11:07:43;7.60;99.90
16128;DHT22;8168;49.036;7.690;2023-04-03T11:10:36;7.90;99.90
16128;DHT22;8168;49.036;7.690;2023-04-03T11:13:38;7.40;99.90
16128;DHT22;8168;49.036;7.690;2023-04-03T11:16:15;7.50;99.90
16128;DHT22;8168;49.036;7.690;2023-04-03T11:18:59;7.50;99.90
16128;DHT22;8168;49.036;7.690;2023-04-03T11:21:41;7.70;99.90
16128;DHT22;8168;49.036;7.690;2023-04-03T11:24:20;7.90;99.90
16128;DHT22;8168;49.036;7.690;2023-04-03T11:26:54;7.70;99.90
16128;DHT22;8168;49.036;7.690;2023-04-03T11:29:34;7.90;99.90
16128;DHT22;8168;49.036;7.690;2023-04-03T11:33:03;8.00;99.90
16128;DHT22;8168;49.036;7.690;2023-04-03T11:35:24;7.80;99.90
16128;DHT22;8168;49.036;7.690;2023-04-03T11:37:56;7.80;99.90
16128;DHT22;8168;49.036;7.690;2023-04-03T11:40:32;7.90;99.90
16128;DHT22;8168;49.036;7.690;2023-04-03T11:43:21;8.00;99.90
16128;DHT22;8168;49.036;7.690;2023-04-03T11:45:58;7.90;99.90
16128;DHT22;8168;49.036;7.690;2023-04-03T11:53:48;7.90;99.90
16128;DHT22;8168;49.036;7.690;2023-04-03T12:01:48;8.00;99.90
16128;DHT22;8168;49.036;7.690;2023-04-03T12:04:22;8.00;99.90
16128;DHT22;8168;49.036;7.690;2023-04-03T12:07:01;8.00;99.90
16128;DHT22;8168;49.036;7.690;2023-04-03T12:09:56;8.30;99.90
16128;DHT22;8168;49.036;7.690;2023-04-03T12:12:56;7.90;99.90
16128;DHT22;8168;49.036;7.690;2023-04-03T12:15:51;8.00;99.90
16128;DHT22;8168;49.036;7.690;2023-04-03T12:18:40;8.10;99.90
16128;DHT22;8168;49.036;7.690;2023-04-03T12:21:13;8.10;99.90
16128;DHT22;8168;49.036;7.690;2023-04-03T12:23:58;8.10;99.90
16128;DHT22;8168;49.036;7.690;2023-04-03T12:26:51;8.10;99.90
16128;DHT22;8168;49.036;7.690;2023-04-03T12:51:39;8.00;99.80
16128;DHT22;8168;49.036;7.690;2023-04-03T12:57:34;8.00;99.90
16128;DHT22;8168;49.036;7.690;2023-04-03T13:00:31;8.00;99.10
16128;DHT22;8168;49.036;7.690;2023-04-03T13:03:05;7.90;99.90
16128;DHT22;8168;49.036;7.690;2023-04-03T13:05:36;7.80;98.50
16128;DHT22;8168;49.036;7.690;2023-04-03T13:08:10;7.90;99.90
16128;DHT22;8168;49.036;7.690;2023-04-03T13:13:20;8.30;99.50
16128;DHT22;8168;49.036;7.690;2023-04-03T13:15:50;8.10;99.30
16128;DHT22;8168;49.036;7.690;2023-04-03T13:18:28;7.10;98.20
16128;DHT22;8168;49.036;7.690;2023-04-03T13:21:05;7.90;99.20
16128;DHT22;8168;49.036;7.690;2023-04-03T13:23:42;8.00;99.20
16128;DHT22;8168;49.036;7.690;2023-04-03T13:26:16;8.00;99.50
16128;DHT22;8168;49.036;7.690;2023-04-03T13:28:48;8.10;98.90
16128;DHT22;8168;49.036;7.690;2023-04-03T13:31:26;8.10;99.20
16128;DHT22;8168;49.036;7.690;2023-04-03T13:34:12;8.10;98.30
16128;DHT22;8168;49.036;7.690;2023-04-03T13:36:56;8.20;99.30
16128;DHT22;8168;49.036;7.690;2023-04-03T13:39:56;8.10;97.60
16128;DHT22;8168;49.036;7.690;2023-04-03T13:42:30;8.10;98.00
16128;DHT22;8168;49.036;7.690;2023-04-03T13:45:25;8.10;98.60
16128;DHT22;8168;49.036;7.690;2023-04-03T13:48:16;8.10;97.80
16128;DHT22;8168;49.036;7.690;2023-04-03T13:51:01;8.00;97.10
16128;DHT22;8168;49.036;7.690;2023-04-03T13:53:33;8.00;97.60
16128;DHT22;8168;49.036;7.690;2023-04-03T13:56:08;8.10;98.70
16128;DHT22;8168;49.036;7.690;2023-04-03T13:58:39;8.10;97.50
16128;DHT22;8168;49.036;7.690;2023-04-03T14:01:20;8.10;97.60
16128;DHT22;8168;49.036;7.690;2023-04-03T14:04:00;8.20;98.70
16128;DHT22;8168;49.036;7.690;2023-04-03T14:06:31;8.20;98.70
16128;DHT22;8168;49.036;7.690;2023-04-03T14:09:02;8.20;99.10
16128;DHT22;8168;49.036;7.690;2023-04-03T14:11:34;8.20;96.90
16128;DHT22;8168;49.036;7.690;2023-04-03T14:14:21;8.20;97.90
16128;DHT22;8168;49.036;7.690;2023-04-03T14:16:54;8.10;96.00
16128;DHT22;8168;49.036;7.690;2023-04-03T14:19:29;8.10;96.90
16128;DHT22;8168;49.036;7.690;2023-04-03T14:22:06;8.10;97.80
16128;DHT22;8168;49.036;7.690;2023-04-03T14:24:41;8.00;95.90
16128;DHT22;8168;49.036;7.690;2023-04-03T14:27:24;8.00;96.40
16128;DHT22;8168;49.036;7.690;2023-04-03T14:29:56;7.90;96.40
16128;DHT22;8168;49.036;7.690;2023-04-03T14:32:27;8.00;97.10
16128;DHT22;8168;49.036;7.690;2023-04-03T14:34:58;8.20;96.40
16128;DHT22;8168;49.036;7.690;2023-04-03T14:37:30;7.90;96.20
16128;DHT22;8168;49.036;7.690;2023-04-03T14:40:03;7.90;97.40
16128;DHT22;8168;49.036;7.690;2023-04-03T14:42:37;8.00;96.70
16128;DHT22;8168;49.036;7.690;2023-04-03T14:45:10;8.00;96.80
16128;DHT22;8168;49.036;7.690;2023-04-03T14:47:47;8.10;96.40
16128;DHT22;8168;49.036;7.690;2023-04-03T14:50:22;8.10;96.50
16128;DHT22;8168;49.036;7.690;2023-04-03T14:52:55;8.20;96.70
16128;DHT22;8168;49.036;7.690;2023-04-03T14:55:26;8.20;96.40
16128;DHT22;8168;49.036;7.690;2023-04-03T14:57:56;8.20;96.50
16128;DHT22;8168;49.036;7.690;2023-04-03T15:00:27;8.10;95.30
16128;DHT22;8168;49.036;7.690;2023-04-03T15:02:58;8.10;96.50
16128;DHT22;8168;49.036;7.690;2023-04-03T15:05:28;8.10;95.40
16128;DHT22;8168;49.036;7.690;2023-04-03T15:07:59;8.10;96.20
16128;DHT22;8168;49.036;7.690;2023-04-03T15:10:31;8.20;96.00
16128;DHT22;8168;49.036;7.690;2023-04-03T15:13:03;8.30;95.80
16128;DHT22;8168;49.036;7.690;2023-04-03T15:15:35;8.40;96.70
16128;DHT22;8168;49.036;7.690;2023-04-03T15:18:12;8.40;93.70
16128;DHT22;8168;49.036;7.690;2023-04-03T15:20:44;8.40;94.90
16128;DHT22;8168;49.036;7.690;2023-04-03T15:23:16;8.40;95.50
16128;DHT22;8168;49.036;7.690;2023-04-03T15:25:48;8.50;94.80
16128;DHT22;8168;49.036;7.690;2023-04-03T15:28:29;8.50;94.10
16128;DHT22;8168;49.036;7.690;2023-04-03T15:31:01;8.50;93.00
16128;DHT22;8168;49.036;7.690;2023-04-03T15:33:33;8.50;94.40
16128;DHT22;8168;49.036;7.690;2023-04-03T15:36:05;8.40;93.70
16128;DHT22;8168;49.036;7.690;2023-04-03T15:38:36;8.40;93.90
16128;DHT22;8168;49.036;7.690;2023-04-03T15:41:08;8.50;94.10
16128;DHT22;8168;49.036;7.690;2023-04-03T15:43:39;8.40;92.20
16128;DHT22;8168;49.036;7.690;2023-04-03T15:46:09;8.30;93.20
16128;DHT22;8168;49.036;7.690;2023-04-03T15:48:40;8.30;92.50
16128;DHT22;8168;49.036;7.690;2023-04-03T15:51:11;8.30;92.60
16128;DHT22;8168;49.036;7.690;2023-04-03T15:53:42;8.30;93.80
16128;DHT22;8168;49.036;7.690;2023-04-03T15:56:13;8.50;94.10
16128;DHT22;8168;49.036;7.690;2023-04-03T15:58:44;8.60;93.80
16128;DHT22;8168;49.036;7.690;2023-04-03T16:01:14;8.70;94.10
16128;DHT22;8168;49.036;7.690;2023-04-03T16:03:45;8.80;92.90
16128;DHT22;8168;49.036;7.690;2023-04-03T16:06:17;8.70;92.90
16128;DHT22;8168;49.036;7.690;2023-04-03T16:08:49;8.60;92.80
16128;DHT22;8168;49.036;7.690;2023-04-03T16:11:20;8.40;92.50
16128;DHT22;8168;49.036;7.690;2023-04-03T16:13:50;8.30;93.30
16128;DHT22;8168;49.036;7.690;2023-04-03T16:16:22;8.20;92.90
16128;DHT22;8168;49.036;7.690;2023-04-03T16:18:54;8.20;92.90
16128;DHT22;8168;49.036;7.690;2023-04-03T16:21:26;8.00;92.60
16128;DHT22;8168;49.036;7.690;2023-04-03T16:23:58;8.10;93.70
16128;DHT22;8168;49.036;7.690;2023-04-03T16:26:29;8.00;93.90
16128;DHT22;8168;49.036;7.690;2023-04-03T16:29:00;8.00;93.90
16128;DHT22;8168;49.036;7.690;2023-04-03T16:31:32;7.90;94.40
16128;DHT22;8168;49.036;7.690;2023-04-03T16:34:03;8.10;95.00
16128;DHT22;8168;49.036;7.690;2023-04-03T16:36:33;8.00;93.90
16128;DHT22;8168;49.036;7.690;2023-04-03T16:39:04;7.90;93.90
16128;DHT22;8168;49.036;7.690;2023-04-03T16:41:35;7.80;93.70
16128;DHT22;8168;49.036;7.690;2023-04-03T16:44:06;7.80;93.90
16128;DHT22;8168;49.036;7.690;2023-04-03T16:46:37;7.90;93.80
16128;DHT22;8168;49.036;7.690;2023-04-03T16:49:08;7.80;93.90
16128;DHT22;8168;49.036;7.690;2023-04-03T16:51:39;7.70;93.70
16128;DHT22;8168;49.036;7.690;2023-04-03T16:54:09;7.80;93.90
16128;DHT22;8168;49.036;7.690;2023-04-03T16:56:41;7.90;94.40
16128;DHT22;8168;49.036;7.690;2023-04-03T16:59:12;7.70;93.60
16128;DHT22;8168;49.036;7.690;2023-04-03T17:01:43;7.90;93.90
16128;DHT22;8168;49.036;7.690;2023-04-03T17:04:13;8.00;94.50
16128;DHT22;8168;49.036;7.690;2023-04-03T17:06:44;8.00;94.10
16128;DHT22;8168;49.036;7.690;2023-04-03T17:09:15;7.70;93.60
16128;DHT22;8168;49.036;7.690;2023-04-03T17:11:46;8.10;94.00
16128;DHT22;8168;49.036;7.690;2023-04-03T17:14:17;7.70;93.40
16128;DHT22;8168;49.036;7.690;2023-04-03T17:16:47;7.80;93.60
16128;DHT22;8168;49.036;7.690;2023-04-03T17:19:18;7.70;92.20
16128;DHT22;8168;49.036;7.690;2023-04-03T17:21:49;7.60;92.60
16128;DHT22;8168;49.036;7.690;2023-04-03T17:24:19;7.90;93.00
16128;DHT22;8168;49.036;7.690;2023-04-03T17:26:50;7.80;93.70
16128;DHT22;8168;49.036;7.690;2023-04-03T17:29:20;7.60;93.70
16128;DHT22;8168;49.036;7.690;2023-04-03T17:31:51;7.90;93.90
16128;DHT22;8168;49.036;7.690;2023-04-03T17:34:22;7.50;93.70
16128;DHT22;8168;49.036;7.690;2023-04-03T17:36:52;7.50;93.70
16128;DHT22;8168;49.036;7.690;2023-04-03T17:39:23;7.50;94.40
16128;DHT22;8168;49.036;7.690;2023-04-03T17:41:54;7.70;93.80
16128;DHT22;8168;49.036;7.690;2023-04-03T17:44:25;7.60;94.40
16128;DHT22;8168;49.036;7.690;2023-04-03T17:46:56;7.40;94.40
16128;DHT22;8168;49.036;7.690;2023-04-03T17:49:27;7.60;94.70
16128;DHT22;8168;49.036;7.690;2023-04-03T17:51:58;7.20;95.00
16128;DHT22;8168;49.036;7.690;2023-04-03T17:54:28;7.50;95.60
16128;DHT22;8168;49.036;7.690;2023-04-03T17:56:59;7.50;95.70
16128;DHT22;8168;49.036;7.690;2023-04-03T17:59:30;7.00;95.50
16128;DHT22;8168;49.036;7.690;2023-04-03T18:02:01;7.00;95.60
16128;DHT22;8168;49.036;7.690;2023-04-03T18:04:31;7.30;95.20
16128;DHT22;8168;49.036;7.690;2023-04-03T18:07:02;6.80;94.90
16128;DHT22;8168;49.036;7.690;2023-04-03T18:09:33;6.70;94.80